createdAt,value
2017-09-19T00:00:22.905Z,6.35
2017-09-19T00:02:51.752Z,7.12
2017-09-19T00:05:20.594Z,6.03
2017-09-19T00:07:49.433Z,7.12
2017-09-19T00:10:17.581Z,6.85
2017-09-19T00:12:47.398Z,6.60
2017-09-19T00:15:16.377Z,7.60
2017-09-19T00:17:45.215Z,4.85
2017-09-19T00:20:14.749Z,7.55
2017-09-19T00:22:46.172Z,6.28
2017-09-19T00:25:15.018Z,6.87
2017-09-19T00:27:43.585Z,6.20
2017-09-19T00:30:12.161Z,7.40
2017-09-19T00:32:41.774Z,6.60
2017-09-19T00:35:10.615Z,7.80
2017-09-19T00:37:41.228Z,7.18
2017-09-19T00:40:10.069Z,7.10
2017-09-19T00:42:39.671Z,6.80
2017-09-19T00:45:09.304Z,18.23
2017-09-19T00:47:38.151Z,6.43
2017-09-19T00:50:07.000Z,6.60
2017-09-19T00:52:37.149Z,6.20
2017-09-19T00:55:06.071Z,6.60
2017-09-19T00:57:35.289Z,6.75
2017-09-19T01:00:04.207Z,5.90
2017-09-19T01:02:33.046Z,9.82
2017-09-19T01:05:01.979Z,6.70
2017-09-19T01:07:31.199Z,10.02
2017-09-19T01:10:00.096Z,6.57
2017-09-19T01:12:29.480Z,7.47
2017-09-19T01:14:58.325Z,5.85
2017-09-19T01:17:27.156Z,9.43
2017-09-19T01:19:55.989Z,7.28
2017-09-19T01:22:24.476Z,7.78
2017-09-19T01:24:53.776Z,7.35
2017-09-19T01:27:21.920Z,9.05
2017-09-19T01:29:51.097Z,6.93
2017-09-19T01:32:19.253Z,11.63
2017-09-19T01:34:49.720Z,7.28
2017-09-19T01:37:18.919Z,9.30
2017-09-19T01:39:47.527Z,10.65
2017-09-19T01:42:16.362Z,7.93
2017-09-19T01:44:46.236Z,9.35
2017-09-19T01:47:15.740Z,9.00
2017-09-19T01:49:44.591Z,9.63
2017-09-19T01:52:13.423Z,9.05
2017-09-19T01:54:42.268Z,7.90
2017-09-19T01:57:11.109Z,7.55
2017-09-19T01:59:40.522Z,8.82
2017-09-19T02:02:09.373Z,8.95
2017-09-19T02:04:39.392Z,9.80
2017-09-19T02:07:08.050Z,9.52
2017-09-19T02:09:36.916Z,13.43
2017-09-19T02:12:05.834Z,9.65
2017-09-19T02:14:34.684Z,12.57
2017-09-19T02:17:03.536Z,14.60
2017-09-19T02:19:32.383Z,9.02
2017-09-19T02:22:01.220Z,8.30
2017-09-19T02:24:30.067Z,9.82
2017-09-19T02:26:59.672Z,10.25
2017-09-19T02:29:29.302Z,12.50
2017-09-19T02:31:58.808Z,11.50
2017-09-19T02:34:27.664Z,9.95
2017-09-19T02:36:56.520Z,11.20
2017-09-19T02:39:25.363Z,9.60
2017-09-19T02:41:54.979Z,16.77
2017-09-19T02:44:24.072Z,8.60
2017-09-19T02:46:53.675Z,7.45
2017-09-19T02:49:23.277Z,8.10
2017-09-19T02:51:52.892Z,13.40
2017-09-19T02:54:21.734Z,8.23
2017-09-19T02:56:50.572Z,8.00
2017-09-19T02:59:19.435Z,8.20
2017-09-19T03:01:48.276Z,6.70
2017-09-19T03:04:17.112Z,8.30
2017-09-19T03:06:45.663Z,7.22
2017-09-19T03:09:14.496Z,8.93
2017-09-19T03:11:44.060Z,7.28
2017-09-19T03:14:12.899Z,8.63
2017-09-19T03:16:41.740Z,9.48
2017-09-19T03:19:10.581Z,10.10
2017-09-19T03:21:39.423Z,7.80
2017-09-19T03:24:08.261Z,9.45
2017-09-19T03:26:37.110Z,8.65
2017-09-19T03:29:05.947Z,9.35
2017-09-19T03:31:34.791Z,17.00
2017-09-19T03:34:03.629Z,9.02
2017-09-19T03:36:33.433Z,9.02
2017-09-19T03:39:02.277Z,9.02
2017-09-19T03:41:31.118Z,8.00
2017-09-19T03:43:59.951Z,8.20
2017-09-19T03:46:29.396Z,9.07
2017-09-19T03:48:58.276Z,10.93
2017-09-19T03:51:27.136Z,8.20
2017-09-19T03:53:55.993Z,8.27
2017-09-19T03:56:24.839Z,9.50
2017-09-19T03:58:53.685Z,10.10
2017-09-19T04:01:24.268Z,9.00
2017-09-19T04:03:53.114Z,9.70
2017-09-19T04:06:22.604Z,8.68
2017-09-19T04:08:52.485Z,10.95
2017-09-19T04:11:21.325Z,9.20
2017-09-19T04:13:50.194Z,9.40
2017-09-19T04:16:20.900Z,8.32
2017-09-19T04:18:49.825Z,11.82
2017-09-19T04:21:18.978Z,8.75
2017-09-19T04:23:47.840Z,9.57
2017-09-19T04:26:17.359Z,8.00
2017-09-19T04:28:46.627Z,9.07
2017-09-19T04:31:16.328Z,11.50
2017-09-19T04:33:46.572Z,13.52
2017-09-19T04:36:16.034Z,13.15
2017-09-19T04:38:44.850Z,11.50
2017-09-19T04:41:13.696Z,8.73
2017-09-19T04:43:42.539Z,8.48
2017-09-19T04:46:12.537Z,11.90
2017-09-19T04:48:41.408Z,13.85
2017-09-19T04:51:10.289Z,10.15
2017-09-19T04:53:39.480Z,10.35
2017-09-19T04:56:08.328Z,16.12
2017-09-19T04:58:37.169Z,8.90
2017-09-19T05:01:06.011Z,12.77
2017-09-19T05:03:35.620Z,9.48
2017-09-19T05:06:05.284Z,9.70
2017-09-19T05:08:34.137Z,13.85
2017-09-19T05:11:02.980Z,10.98
2017-09-19T05:13:31.819Z,10.35
2017-09-19T05:16:01.656Z,11.63
2017-09-19T05:18:30.523Z,12.27
2017-09-19T05:20:59.368Z,11.05
2017-09-19T05:23:28.236Z,11.35
2017-09-19T05:25:57.555Z,10.50
2017-09-19T05:28:26.528Z,12.85
2017-09-19T05:30:56.352Z,14.80
2017-09-19T05:33:25.650Z,14.93
2017-09-19T05:35:55.364Z,10.40
2017-09-19T05:38:24.825Z,16.55
2017-09-19T05:40:53.333Z,11.00
2017-09-19T05:43:22.176Z,16.12
2017-09-19T05:45:51.032Z,10.27
2017-09-19T05:48:19.916Z,10.80
2017-09-19T05:50:51.105Z,10.40
2017-09-19T05:53:20.725Z,12.02
2017-09-19T05:55:50.457Z,10.30
2017-09-19T05:58:21.032Z,9.23
2017-09-19T06:00:49.996Z,9.05
2017-09-19T06:03:18.844Z,8.52
2017-09-19T06:05:48.474Z,11.75
2017-09-19T06:08:17.886Z,8.48
2017-09-19T06:10:46.717Z,9.43
2017-09-19T06:13:17.334Z,10.20
2017-09-19T06:15:46.988Z,9.65
2017-09-19T06:18:17.525Z,10.38
2017-09-19T06:20:47.173Z,12.23
2017-09-19T06:23:16.694Z,10.52
2017-09-19T06:25:45.761Z,10.60
2017-09-19T06:28:14.611Z,14.48
2017-09-19T06:30:43.480Z,13.77
2017-09-19T06:33:12.169Z,10.85
2017-09-19T06:35:41.018Z,12.35
2017-09-19T06:38:09.860Z,11.57
2017-09-19T06:40:39.146Z,11.43
2017-09-19T06:43:07.299Z,11.12
2017-09-19T06:45:36.921Z,11.85
2017-09-19T06:48:05.676Z,11.45
2017-09-19T06:50:34.528Z,10.52
2017-09-19T06:53:03.214Z,14.77
2017-09-19T06:55:32.071Z,13.20
2017-09-19T06:58:00.936Z,12.60
2017-09-19T07:00:30.059Z,11.10
2017-09-19T07:02:58.923Z,10.05
2017-09-19T07:05:27.793Z,11.70
2017-09-19T07:07:57.422Z,17.83
2017-09-19T07:10:26.316Z,13.27
2017-09-19T07:12:55.240Z,12.48
2017-09-19T07:15:24.109Z,14.45
2017-09-19T07:17:52.973Z,15.60
2017-09-19T07:20:22.597Z,11.18
2017-09-19T07:22:51.459Z,14.52
2017-09-19T07:25:20.308Z,9.05
2017-09-19T07:27:49.186Z,12.93
2017-09-19T07:30:18.045Z,10.20
2017-09-19T07:32:47.429Z,14.70
2017-09-19T07:35:16.275Z,19.75
2017-09-19T07:37:45.756Z,11.98
2017-09-19T07:40:14.637Z,10.60
2017-09-19T07:42:44.268Z,10.07
2017-09-19T07:45:13.112Z,9.93
2017-09-19T07:47:41.964Z,9.60
2017-09-19T07:50:10.828Z,9.35
2017-09-19T07:52:41.284Z,14.60
2017-09-19T07:55:10.371Z,7.05
2017-09-19T07:57:40.071Z,8.10
2017-09-19T08:00:08.739Z,7.90
2017-09-19T08:02:39.212Z,11.85
2017-09-19T08:05:08.100Z,9.25
2017-09-19T08:07:39.629Z,12.30
2017-09-19T08:10:08.475Z,7.35
2017-09-19T08:12:37.324Z,8.00
2017-09-19T08:15:06.171Z,9.77
2017-09-19T08:17:35.772Z,7.95
2017-09-19T08:20:04.267Z,5.65
2017-09-19T08:22:33.115Z,8.50
2017-09-19T08:25:01.780Z,7.50
2017-09-19T08:27:30.454Z,6.75
2017-09-19T08:30:00.826Z,5.47
2017-09-19T08:32:29.680Z,7.25
2017-09-19T08:34:58.526Z,6.15
2017-09-19T08:37:27.360Z,5.10
2017-09-19T08:39:56.232Z,6.82
2017-09-19T08:42:25.851Z,6.65
2017-09-19T08:44:55.460Z,5.10
2017-09-19T08:47:25.067Z,6.10
2017-09-19T08:49:53.925Z,12.37
2017-09-19T08:52:22.775Z,8.13
2017-09-19T08:54:51.620Z,8.60
2017-09-19T08:57:22.268Z,14.10
2017-09-19T08:59:51.129Z,12.32
2017-09-19T09:02:19.999Z,14.30
2017-09-19T09:04:49.425Z,6.15
2017-09-19T09:07:18.370Z,12.93
2017-09-19T09:09:47.216Z,11.63
2017-09-19T09:12:16.064Z,12.88
2017-09-19T09:14:44.927Z,13.60
2017-09-19T09:17:13.791Z,7.97
2017-09-19T09:19:43.419Z,7.50
2017-09-19T09:22:13.030Z,6.15
2017-09-19T09:24:41.888Z,8.63
2017-09-19T09:27:10.734Z,7.18
2017-09-19T09:29:40.527Z,6.47
2017-09-19T09:32:09.926Z,11.05
2017-09-19T09:34:39.497Z,6.43
2017-09-19T09:37:08.340Z,8.98
2017-09-19T09:39:37.233Z,7.68
2017-09-19T09:42:06.661Z,5.57
2017-09-19T09:44:36.196Z,8.85
2017-09-19T09:47:05.044Z,5.60
2017-09-19T09:49:34.563Z,5.70
2017-09-19T09:52:03.426Z,6.93
2017-09-19T09:54:32.310Z,8.90
2017-09-19T09:57:01.944Z,7.00
2017-09-19T09:59:30.795Z,6.80
2017-09-19T10:02:01.957Z,5.35
2017-09-19T10:04:32.640Z,7.80
2017-09-19T10:07:01.584Z,9.13
2017-09-19T10:09:31.379Z,7.03
2017-09-19T10:12:05.639Z,12.68
2017-09-19T10:14:35.852Z,5.60
2017-09-19T10:17:05.247Z,11.80
2017-09-19T10:19:34.089Z,9.85
2017-09-19T10:22:03.167Z,11.50
2017-09-19T10:24:32.014Z,7.53
2017-09-19T10:27:02.303Z,8.13
2017-09-19T10:29:31.872Z,8.43
2017-09-19T10:32:00.755Z,7.45
2017-09-19T10:34:29.607Z,6.35
2017-09-19T10:36:59.119Z,5.97
2017-09-19T10:39:29.772Z,7.15
2017-09-19T10:41:58.661Z,6.75
2017-09-19T10:44:28.314Z,6.95
2017-09-19T10:46:57.951Z,6.03
2017-09-19T10:49:26.791Z,6.07
2017-09-19T10:51:56.423Z,4.70
2017-09-19T10:54:25.270Z,8.00
2017-09-19T10:56:53.826Z,6.07
2017-09-19T10:59:23.451Z,4.32
2017-09-19T11:01:53.055Z,4.90
2017-09-19T11:04:22.831Z,5.25
2017-09-19T11:06:52.328Z,4.85
2017-09-19T11:09:21.178Z,5.07
2017-09-19T11:11:51.895Z,5.25
2017-09-19T11:16:56.608Z,6.40
2017-09-19T11:19:25.451Z,5.35
2017-09-19T11:21:54.297Z,6.65
2017-09-19T11:24:23.235Z,8.82
2017-09-19T11:26:52.953Z,5.72
2017-09-19T11:29:21.817Z,8.77
2017-09-19T11:31:52.307Z,5.80
2017-09-19T11:34:21.180Z,5.55
2017-09-19T11:36:50.029Z,5.50
2017-09-19T11:39:19.661Z,7.53
2017-09-19T11:41:48.499Z,6.70
2017-09-19T11:44:17.363Z,7.20
2017-09-19T11:46:46.230Z,13.60
2017-09-19T11:49:15.183Z,8.50
2017-09-19T11:51:44.320Z,7.45
2017-09-19T11:54:13.864Z,9.30
2017-09-19T11:56:42.739Z,12.27
2017-09-19T11:59:11.618Z,11.68
2017-09-19T12:01:41.635Z,8.20
2017-09-19T12:04:10.476Z,7.65
2017-09-19T12:06:40.237Z,8.35
2017-09-19T12:09:09.087Z,11.63
2017-09-19T12:11:37.940Z,7.68
2017-09-19T12:14:06.782Z,6.32
2017-09-19T12:16:36.310Z,7.50
2017-09-19T12:19:05.916Z,5.12
2017-09-19T12:21:36.185Z,6.53
2017-09-19T12:24:05.043Z,10.40
2017-09-19T12:26:33.898Z,2.90
2017-09-19T12:29:03.583Z,4.03
2017-09-19T12:31:32.276Z,5.70
2017-09-19T12:34:01.353Z,6.15
2017-09-19T12:36:30.752Z,3.87
2017-09-19T12:38:59.611Z,5.32
2017-09-19T12:41:28.552Z,7.03
2017-09-19T12:43:57.465Z,4.03
2017-09-19T12:46:26.320Z,3.80
2017-09-19T12:48:55.170Z,5.72
2017-09-19T12:51:24.417Z,4.15
2017-09-19T12:53:54.605Z,6.72
2017-09-19T12:56:23.548Z,5.25
2017-09-19T12:58:52.403Z,5.78
2017-09-19T13:01:22.597Z,3.42
2017-09-19T13:03:51.464Z,4.15
2017-09-19T13:06:22.211Z,4.43
2017-09-19T13:08:51.828Z,9.82
2017-09-19T13:11:21.456Z,5.03
2017-09-19T13:13:50.773Z,3.72
2017-09-19T13:16:20.419Z,3.97
2017-09-19T13:18:49.424Z,2.90
2017-09-19T13:21:18.282Z,2.70
2017-09-19T13:23:48.268Z,3.62
2017-09-19T13:26:17.121Z,3.62
2017-09-19T13:28:45.992Z,3.35
2017-09-19T13:31:26.011Z,2.33
2017-09-19T13:33:54.854Z,2.28
2017-09-19T13:36:24.246Z,3.85
2017-09-19T13:38:53.443Z,9.32
2017-09-19T13:41:22.999Z,5.85
2017-09-19T13:43:51.844Z,3.65
2017-09-19T13:46:20.504Z,7.15
2017-09-19T13:48:49.228Z,2.75
2017-09-19T13:51:17.951Z,2.70
2017-09-19T13:53:46.627Z,2.65
2017-09-19T13:56:16.247Z,3.97
2017-09-19T13:58:45.093Z,5.18
2017-09-19T14:01:13.958Z,3.92
2017-09-19T14:03:42.895Z,5.35
2017-09-19T14:06:11.556Z,7.62
2017-09-19T14:08:41.351Z,4.78
2017-09-19T14:11:13.081Z,3.28
2017-09-19T14:13:41.932Z,2.87
2017-09-19T14:16:10.795Z,3.45
2017-09-19T14:18:39.677Z,3.28
2017-09-19T14:21:08.535Z,3.95
2017-09-19T14:23:38.148Z,7.50
2017-09-19T14:26:07.923Z,1.92
2017-09-19T14:28:36.776Z,2.58
2017-09-19T14:31:05.642Z,2.25
2017-09-19T14:33:35.279Z,2.92
2017-09-19T14:36:04.143Z,3.60
2017-09-19T14:38:32.991Z,2.30
2017-09-19T14:41:01.840Z,3.83
2017-09-19T14:43:31.664Z,4.20
2017-09-19T14:46:00.579Z,4.85
2017-09-19T14:48:29.432Z,6.32
2017-09-19T14:50:58.277Z,2.85
2017-09-19T14:53:27.139Z,5.82
2017-09-19T14:55:56.528Z,2.53
2017-09-19T14:58:28.410Z,7.47
2017-09-19T15:00:57.264Z,6.12
2017-09-19T15:03:26.130Z,3.00
2017-09-19T15:05:55.759Z,4.12
2017-09-19T15:08:24.615Z,5.25
2017-09-19T15:10:53.460Z,3.17
2017-09-19T15:13:22.304Z,3.40
2017-09-19T15:15:51.156Z,2.22
2017-09-19T15:18:20.323Z,3.55
2017-09-19T15:20:49.173Z,6.07
2017-09-19T15:23:18.016Z,2.33
2017-09-19T15:25:48.872Z,1.60
2017-09-19T15:28:17.741Z,4.32
2017-09-19T15:30:46.600Z,3.47
2017-09-19T15:35:48.824Z,3.90
2017-09-19T15:38:18.976Z,3.45
2017-09-19T15:40:48.336Z,2.45
2017-09-19T15:43:17.205Z,4.12
2017-09-19T15:45:46.528Z,3.00
2017-09-19T15:48:15.415Z,2.08
2017-09-19T15:50:44.224Z,4.20
2017-09-19T15:53:13.084Z,5.57
2017-09-19T15:55:42.707Z,3.83
2017-09-19T15:58:12.522Z,5.10
2017-09-19T17:37:40.574Z,5.10
2017-09-19T17:40:10.181Z,7.57
2017-09-19T17:42:43.072Z,5.80
2017-09-19T17:45:13.940Z,10.57
2017-09-19T17:47:43.468Z,6.57
2017-09-19T17:50:12.323Z,10.35
2017-09-19T17:52:41.169Z,6.62
2017-09-19T17:55:11.016Z,4.40
2017-09-19T17:57:40.237Z,7.95
2017-09-19T18:00:11.351Z,6.00
2017-09-19T18:05:20.828Z,11.95
2017-09-19T18:07:51.866Z,5.60
2017-09-19T18:10:22.696Z,4.50
2017-09-19T18:12:52.365Z,5.53
2017-09-19T18:18:01.100Z,12.98
2017-09-19T18:20:43.281Z,5.30
2017-09-19T18:23:14.042Z,6.00
2017-09-19T18:28:38.992Z,5.30
2017-09-19T18:44:05.213Z,14.55
2017-09-19T18:46:34.098Z,6.60
2017-09-19T18:51:45.709Z,8.10
2017-09-19T18:56:54.095Z,10.60
2017-09-19T18:59:23.438Z,7.00
2017-09-19T19:01:53.061Z,7.65
2017-09-19T19:04:22.497Z,10.70
2017-09-19T19:06:51.377Z,7.85
2017-09-19T19:09:20.229Z,8.52
2017-09-19T19:11:49.902Z,7.35
2017-09-19T19:14:18.765Z,11.50
2017-09-19T19:16:49.011Z,7.20
2017-09-19T19:19:17.933Z,10.05
2017-09-19T19:21:46.808Z,10.80
2017-09-19T19:24:20.829Z,5.95
2017-09-19T19:26:49.707Z,13.90
2017-09-19T19:29:18.636Z,9.77
2017-09-19T19:31:48.263Z,8.50
2017-09-19T19:34:20.038Z,7.00
2017-09-19T19:36:49.540Z,6.53
2017-09-19T19:39:18.212Z,6.28
2017-09-19T19:41:47.639Z,5.97
2017-09-19T19:57:00.302Z,9.55
2017-09-19T19:59:29.915Z,7.97
2017-09-19T20:02:04.352Z,7.85
2017-09-19T20:21:16.154Z,11.82
2017-09-19T20:23:48.453Z,7.97
2017-09-19T20:31:34.261Z,9.82
2017-09-19T20:34:09.208Z,13.55
2017-09-19T20:39:33.480Z,8.07
2017-09-19T20:47:26.732Z,7.68
2017-09-19T20:52:42.881Z,7.70
2017-09-19T20:55:13.585Z,14.15
2017-09-19T20:57:44.516Z,17.65
2017-09-19T21:00:13.521Z,10.52
2017-09-19T21:08:08.476Z,11.77
2017-09-19T21:10:43.080Z,9.90
2017-09-19T21:13:17.597Z,8.23
2017-09-19T21:18:36.112Z,8.35
2017-09-19T21:21:04.777Z,9.95
2017-09-19T21:23:33.644Z,9.82
2017-09-19T21:26:02.523Z,12.75
2017-09-19T21:28:31.388Z,10.00
2017-09-19T21:31:01.015Z,8.77
2017-09-19T21:33:29.754Z,8.10
2017-09-19T21:35:58.902Z,17.58
2017-09-19T21:38:27.756Z,11.63
2017-09-19T21:40:56.628Z,10.60
2017-09-19T21:43:25.491Z,8.60
2017-09-19T21:45:55.132Z,7.65
2017-09-19T21:48:23.980Z,11.45
2017-09-19T21:50:52.837Z,11.82
2017-09-19T21:53:22.464Z,11.68
2017-09-19T21:55:51.357Z,12.00
2017-09-19T21:58:20.920Z,9.85
2017-09-19T22:00:49.783Z,10.85
2017-09-19T22:03:19.659Z,10.15
2017-09-19T22:05:48.405Z,10.55
2017-09-19T22:08:17.276Z,10.80
2017-09-19T22:10:46.151Z,12.32
2017-09-19T22:13:15.024Z,19.48
2017-09-19T22:15:45.185Z,10.20
2017-09-19T22:18:14.055Z,10.75
2017-09-19T22:20:42.928Z,12.05
2017-09-19T22:23:11.787Z,10.02
2017-09-19T22:25:41.448Z,10.35
2017-09-19T22:28:10.325Z,10.10
2017-09-19T22:30:39.175Z,9.27
2017-09-19T22:33:08.029Z,11.90
2017-09-19T22:35:38.057Z,11.95
2017-09-19T22:38:06.935Z,11.27
2017-09-19T22:40:35.808Z,9.95
2017-09-19T22:43:04.663Z,10.75
2017-09-19T22:45:33.522Z,12.60
2017-09-19T22:48:02.484Z,14.20
2017-09-19T22:50:31.350Z,9.77
2017-09-19T22:53:00.192Z,9.38
2017-09-19T22:55:29.066Z,17.02
2017-09-19T22:57:57.947Z,13.85
2017-09-19T23:00:26.800Z,13.85
2017-09-19T23:02:55.691Z,10.85
2017-09-19T23:05:24.543Z,12.20
2017-09-19T23:07:53.395Z,10.05
2017-09-19T23:10:23.014Z,10.10
2017-09-19T23:12:51.877Z,10.40
2017-09-19T23:15:20.753Z,10.75
2017-09-19T23:17:50.603Z,14.48
2017-09-19T23:20:20.227Z,10.80
2017-09-19T23:22:49.991Z,11.35
2017-09-19T23:25:18.835Z,9.27
2017-09-19T23:27:48.612Z,13.77
2017-09-19T23:30:17.448Z,9.38
2017-09-19T23:32:46.106Z,8.75
2017-09-19T23:35:15.229Z,9.55
2017-09-19T23:37:43.900Z,10.27
2017-09-19T23:40:12.573Z,10.32
2017-09-19T23:42:42.003Z,14.35
2017-09-19T23:45:10.857Z,9.52
2017-09-19T23:47:40.485Z,13.15
2017-09-19T23:50:10.089Z,9.25
2017-09-19T23:52:38.946Z,11.05
2017-09-19T23:55:07.812Z,15.10
2017-09-19T23:57:36.672Z,10.50
